createdAt,value
2023-04-04T00:01:25.116Z,4.60
2023-04-04T00:06:28.086Z,4.30
2023-04-04T00:11:30.862Z,4.10
2023-04-04T00:16:34.165Z,3.80
2023-04-04T00:21:37.015Z,4.20
2023-04-04T00:26:39.770Z,4.00
2023-04-04T00:31:43.719Z,4.00
2023-04-04T00:36:46.573Z,4.40
2023-04-04T00:41:49.954Z,6.40
2023-04-04T00:46:53.062Z,10.20
2023-04-04T00:51:55.829Z,6.90
2023-04-04T00:56:59.091Z,7.00
2023-04-04T01:02:02.237Z,4.80
2023-04-04T01:07:05.027Z,6.90
2023-04-04T01:12:08.229Z,8.20
2023-04-04T01:17:11.280Z,9.00
2023-04-04T01:22:15.481Z,5.90
2023-04-04T01:27:18.303Z,5.90
2023-04-04T01:32:29.495Z,5.00
2023-04-04T01:37:56.287Z,4.60
2023-04-04T01:48:02.219Z,4.60
2023-04-04T01:53:05.072Z,2.80
2023-04-04T01:58:07.884Z,3.50
2023-04-04T02:03:10.691Z,7.90
2023-04-04T02:08:13.574Z,7.70
2023-04-04T02:13:16.883Z,5.40
2023-04-04T02:18:20.277Z,4.80
2023-04-04T02:23:23.019Z,5.00
2023-04-04T02:28:28.767Z,5.80
2023-04-04T02:33:31.980Z,4.30
2023-04-04T02:38:34.759Z,4.40
2023-04-04T02:43:37.498Z,5.40
2023-04-04T02:48:41.148Z,4.30
2023-04-04T02:53:44.007Z,3.70
2023-04-04T02:58:46.895Z,7.90
2023-04-04T03:03:49.838Z,6.30
2023-04-04T03:08:52.742Z,6.70
2023-04-04T03:13:56.120Z,5.10
2023-04-04T03:18:59.029Z,4.90
2023-04-04T03:24:01.830Z,4.90
2023-04-04T03:29:04.920Z,4.10
2023-04-04T03:34:07.688Z,4.50
2023-04-04T03:39:10.473Z,4.00
2023-04-04T03:44:13.187Z,4.60
2023-04-04T03:49:16.339Z,6.10
2023-04-04T03:54:19.106Z,3.40
2023-04-04T03:59:22.127Z,4.60
2023-04-04T04:04:24.939Z,4.60
2023-04-04T04:09:27.751Z,7.00
2023-04-04T04:14:30.557Z,4.60
2023-04-04T04:19:33.514Z,5.40
2023-04-04T04:24:36.770Z,2.50
2023-04-04T04:29:39.512Z,5.90
2023-04-04T04:34:42.895Z,6.20
2023-04-04T04:39:47.849Z,5.10
2023-04-04T04:44:51.495Z,3.80
2023-04-04T04:49:54.235Z,3.30
2023-04-04T04:54:57.419Z,7.70
2023-04-04T05:00:01.435Z,4.60
2023-04-04T05:05:04.691Z,6.20
2023-04-04T05:10:07.878Z,6.50
2023-04-04T05:15:12.235Z,8.20
2023-04-04T05:20:15.180Z,5.60
2023-04-04T05:25:18.303Z,4.80
2023-04-04T05:30:21.168Z,6.20
2023-04-04T05:35:25.311Z,6.00
2023-04-04T05:40:28.174Z,4.00
2023-04-04T05:45:31.760Z,3.60
2023-04-04T05:50:34.613Z,5.30
2023-04-04T05:55:37.491Z,7.50
2023-04-04T06:00:40.739Z,4.30
2023-04-04T06:05:44.611Z,4.80
2023-04-04T06:10:48.312Z,8.00
2023-04-04T06:15:53.468Z,5.20
2023-04-04T06:20:57.956Z,4.60
2023-04-04T06:26:04.365Z,5.30
2023-04-04T06:31:13.441Z,5.70
2023-04-04T06:36:16.937Z,4.00
2023-04-04T06:41:27.454Z,6.40
2023-04-04T06:46:33.390Z,6.50
2023-04-04T06:51:36.964Z,5.20
2023-04-04T06:56:41.689Z,3.80
2023-04-04T07:01:45.046Z,7.10
2023-04-04T07:06:47.811Z,3.80
2023-04-04T07:11:53.694Z,4.60
2023-04-04T07:16:56.972Z,5.70
2023-04-04T07:22:00.061Z,4.30
2023-04-04T07:27:03.013Z,2.70
2023-04-04T07:32:08.300Z,4.40
2023-04-04T07:37:11.418Z,3.70
2023-04-04T07:42:14.496Z,6.40
2023-04-04T07:47:18.370Z,3.20
2023-04-04T07:52:21.559Z,5.70
2023-04-04T07:57:27.215Z,2.80
2023-04-04T08:02:32.929Z,4.20
2023-04-04T08:07:36.403Z,3.70
2023-04-04T08:12:39.633Z,4.80
2023-04-04T08:17:43.784Z,3.20
2023-04-04T08:22:47.354Z,3.60
2023-04-04T08:27:50.651Z,3.40
2023-04-04T08:33:12.780Z,6.00
2023-04-04T08:38:28.348Z,5.20
2023-04-04T08:43:35.692Z,5.00
2023-04-04T08:48:41.794Z,2.00
2023-04-04T08:53:44.654Z,2.50
2023-04-04T08:58:48.065Z,4.60
2023-04-04T09:03:52.595Z,3.90
2023-04-04T09:08:58.005Z,3.60
2023-04-04T09:14:04.568Z,5.20
2023-04-04T09:19:08.164Z,4.20
2023-04-04T09:24:16.082Z,6.80
2023-04-04T09:29:21.543Z,4.70
2023-04-04T09:34:25.210Z,2.90
2023-04-04T09:39:28.370Z,3.60
2023-04-04T09:44:34.302Z,4.50
2023-04-04T09:49:39.803Z,6.20
2023-04-04T09:54:48.403Z,5.70
2023-04-04T09:59:51.498Z,5.70
2023-04-04T10:05:03.544Z,3.40
2023-04-04T10:10:11.255Z,10.60
2023-04-04T10:15:17.126Z,4.10
2023-04-04T10:20:21.013Z,6.90
2023-04-04T10:25:24.690Z,3.70
2023-04-04T10:30:27.732Z,2.10
2023-04-04T10:35:31.867Z,3.10
2023-04-04T10:40:39.218Z,3.80
2023-04-04T10:45:43.384Z,3.60
2023-04-04T10:50:52.240Z,3.30
2023-04-04T10:56:03.194Z,5.50
2023-04-04T11:01:08.314Z,4.20
2023-04-04T11:06:15.485Z,9.60
2023-04-04T11:11:24.498Z,5.80
2023-04-04T11:16:46.563Z,3.40
2023-04-04T11:21:52.025Z,3.60
2023-04-04T11:26:58.375Z,12.60
2023-04-04T11:32:34.260Z,9.40
2023-04-04T11:38:01.120Z,2.70
2023-04-04T11:43:09.070Z,3.80
2023-04-04T11:48:17.069Z,6.30
2023-04-04T11:53:20.862Z,5.90
2023-04-04T11:58:27.015Z,4.20
2023-04-04T12:03:37.431Z,3.90
2023-04-04T12:08:47.103Z,4.50
2023-04-04T12:13:50.964Z,3.00
2023-04-04T12:18:54.207Z,4.10
2023-04-04T12:23:57.761Z,2.90
2023-04-04T12:29:01.782Z,5.70
2023-04-04T12:34:07.360Z,5.10
2023-04-04T12:39:12.376Z,4.60
2023-04-04T12:44:28.086Z,5.60
2023-04-04T12:49:33.337Z,7.30
2023-04-04T12:54:40.107Z,3.70
2023-04-04T12:59:47.432Z,4.70
2023-04-04T13:05:00.371Z,7.10
2023-04-04T13:10:05.725Z,8.10
2023-04-04T13:15:11.859Z,5.10
2023-04-04T13:20:18.751Z,6.80
2023-04-04T13:25:21.854Z,6.50
2023-04-04T13:30:24.668Z,6.90
2023-04-04T13:35:27.785Z,6.70
2023-04-04T13:40:30.720Z,5.10
2023-04-04T13:45:34.577Z,5.20
2023-04-04T13:50:39.631Z,8.60
2023-04-04T13:56:01.303Z,6.70
2023-04-04T14:01:06.912Z,4.30
2023-04-04T14:06:11.107Z,6.10
2023-04-04T14:11:15.023Z,3.60
2023-04-04T14:16:18.450Z,4.10
2023-04-04T14:21:21.547Z,5.50
2023-04-04T14:26:24.451Z,5.10
2023-04-04T14:31:27.797Z,4.60
2023-04-04T14:36:31.850Z,5.60
2023-04-04T14:41:34.746Z,6.10
2023-04-04T14:46:37.732Z,13.40
2023-04-04T14:51:41.103Z,4.30
2023-04-04T14:56:45.705Z,5.10
2023-04-04T15:01:49.088Z,4.20
2023-04-04T15:06:51.998Z,3.60
2023-04-04T15:11:54.808Z,6.70
2023-04-04T15:16:57.614Z,4.50
2023-04-04T15:22:01.699Z,5.60
2023-04-04T15:27:05.753Z,5.50
2023-04-04T15:32:10.715Z,8.60
2023-04-04T15:37:14.684Z,4.40
2023-04-04T15:42:17.735Z,3.40
2023-04-04T15:47:20.504Z,4.30
2023-04-04T15:52:23.415Z,7.00
2023-04-04T15:57:27.223Z,3.60
2023-04-04T16:02:30.245Z,7.20
2023-04-04T16:07:33.168Z,3.70
2023-04-04T16:12:36.126Z,2.90
2023-04-04T16:17:39.327Z,4.00
2023-04-04T16:22:42.103Z,4.10
2023-04-04T16:27:44.828Z,8.60
2023-04-04T16:32:48.001Z,6.80
2023-04-04T16:37:51.474Z,5.90
2023-04-04T16:42:55.236Z,7.40
2023-04-04T16:47:58.191Z,6.50
2023-04-04T16:53:01.194Z,3.50
2023-04-04T16:58:04.442Z,6.80
2023-04-04T17:03:07.482Z,3.40
2023-04-04T17:08:10.360Z,3.80
2023-04-04T17:13:13.668Z,5.00
2023-04-04T17:18:18.165Z,5.10
2023-04-04T17:23:23.194Z,4.50
2023-04-04T17:28:26.154Z,5.60
2023-04-04T17:33:29.404Z,6.20
2023-04-04T17:38:32.685Z,7.20
2023-04-04T17:43:36.774Z,5.20
2023-04-04T17:48:39.592Z,8.40
2023-04-04T17:53:42.728Z,8.90
2023-04-04T17:58:45.827Z,10.10
2023-04-04T18:03:49.124Z,6.50
2023-04-04T18:08:51.944Z,5.90
2023-04-04T18:13:54.788Z,9.40
2023-04-04T18:18:57.576Z,8.20
2023-04-04T18:24:00.386Z,12.30
2023-04-04T18:29:04.278Z,8.50
2023-04-04T18:34:07.321Z,5.80
2023-04-04T18:39:10.183Z,11.20
2023-04-04T18:44:12.978Z,11.50
2023-04-04T18:49:15.719Z,6.30
2023-04-04T18:54:18.538Z,4.60
2023-04-04T18:59:22.632Z,8.10
2023-04-04T19:04:26.353Z,13.80
2023-04-04T19:09:31.282Z,10.00
2023-04-04T19:14:34.035Z,12.50
2023-04-04T19:19:36.817Z,11.90
2023-04-04T19:24:40.924Z,17.30
2023-04-04T19:29:43.742Z,15.60
2023-04-04T19:34:46.974Z,13.00
2023-04-04T19:39:49.879Z,13.00
2023-04-04T19:44:52.809Z,13.50
2023-04-04T19:49:55.575Z,13.50
2023-04-04T19:54:58.438Z,11.60
2023-04-04T20:00:13.632Z,9.80
2023-04-04T20:05:29.490Z,12.50
2023-04-04T20:10:37.609Z,12.10
2023-04-04T20:15:47.493Z,8.70
2023-04-04T20:21:00.530Z,7.90
2023-04-04T20:26:08.613Z,8.00
2023-04-04T20:31:15.859Z,9.80
2023-04-04T20:36:21.792Z,8.80
2023-04-04T20:41:25.533Z,8.00
2023-04-04T20:46:34.546Z,6.80
2023-04-04T20:51:38.011Z,7.40
2023-04-04T20:56:43.439Z,8.60
2023-04-04T21:01:46.389Z,10.50
2023-04-04T21:06:49.244Z,8.90
2023-04-04T21:11:52.735Z,15.50
2023-04-04T21:16:55.709Z,15.70
2023-04-04T21:21:58.733Z,9.10
2023-04-04T21:27:05.115Z,6.00
2023-04-04T21:32:08.569Z,6.20
2023-04-04T21:37:15.161Z,5.30
2023-04-04T21:47:23.334Z,7.90
2023-04-04T21:52:26.191Z,9.60
2023-04-04T21:57:29.259Z,8.10
2023-04-04T22:02:32.163Z,7.20
2023-04-04T22:07:35.027Z,8.90
2023-04-04T22:12:40.181Z,5.40
2023-04-04T22:17:43.663Z,8.00
2023-04-04T22:22:46.514Z,7.40
2023-04-04T22:27:51.159Z,7.80
2023-04-04T22:32:59.709Z,8.40
2023-04-04T22:38:03.668Z,6.60
2023-04-04T22:43:06.976Z,7.20
2023-04-04T22:48:09.796Z,8.00
2023-04-04T22:53:15.380Z,5.70
2023-04-04T22:58:19.517Z,5.70
2023-04-04T23:03:22.397Z,7.10
2023-04-04T23:08:25.319Z,6.90
2023-04-04T23:13:28.085Z,8.10
2023-04-04T23:18:30.872Z,10.30
2023-04-04T23:23:33.673Z,11.20
2023-04-04T23:28:36.527Z,14.60
2023-04-04T23:33:39.329Z,9.90
2023-04-04T23:38:42.196Z,10.20
2023-04-04T23:43:46.011Z,9.20
2023-04-04T23:48:48.815Z,9.50
2023-04-04T23:53:51.729Z,7.10
2023-04-04T23:58:54.488Z,7.70
